createdAt,value
2019-02-07T00:02:47.030Z,-0.7
2019-02-07T00:07:46.390Z,-0.7
2019-02-07T00:12:27.765Z,-0.8
2019-02-07T00:17:28.798Z,-0.7
2019-02-07T00:22:28.482Z,-0.7
2019-02-07T00:27:28.745Z,-0.7
2019-02-07T00:32:27.950Z,-0.8
2019-02-07T00:37:28.640Z,-1.0
2019-02-07T00:42:27.682Z,-1.0
2019-02-07T00:47:27.501Z,-1.1
2019-02-07T00:52:28.366Z,-1.1
2019-02-07T00:57:29.163Z,-1.1
2019-02-07T01:02:28.561Z,-1.0
2019-02-07T01:07:29.164Z,-1.0
2019-02-07T01:12:27.648Z,-1.0
2019-02-07T01:17:27.924Z,-1.0
2019-02-07T01:22:27.936Z,-1.1
2019-02-07T01:27:27.641Z,-1.0
2019-02-07T01:32:27.727Z,-1.0
2019-02-07T01:37:28.255Z,-1.0
2019-02-07T01:42:27.630Z,-1.0
2019-02-07T01:47:27.766Z,-1.1
2019-02-07T01:52:30.153Z,-1.1
2019-02-07T01:57:27.940Z,-1.1
2019-02-07T02:02:27.760Z,-1.2
2019-02-07T02:07:28.244Z,-1.3
2019-02-07T02:12:28.318Z,-1.2
2019-02-07T02:17:27.951Z,-1.2
2019-02-07T02:22:28.023Z,-1.2
2019-02-07T02:27:28.197Z,-1.2
2019-02-07T02:32:28.062Z,-1.1
2019-02-07T02:37:28.205Z,-1.1
2019-02-07T02:42:27.230Z,-1.2
2019-02-07T02:47:27.809Z,-1.4
2019-02-07T02:52:27.781Z,-1.5
2019-02-07T02:57:27.518Z,-1.5
2019-02-07T03:02:28.180Z,-1.4
2019-02-07T03:07:28.766Z,-1.5
2019-02-07T03:12:27.783Z,-1.7
2019-02-07T03:17:28.172Z,-1.7
2019-02-07T03:22:28.394Z,-1.6
2019-02-07T03:27:28.240Z,-1.4
2019-02-07T03:32:27.996Z,-1.4
2019-02-07T03:37:27.880Z,-1.4
2019-02-07T03:42:27.536Z,-1.3
2019-02-07T03:47:28.256Z,-1.1
2019-02-07T03:52:28.208Z,-1.1
2019-02-07T03:57:28.030Z,-1.1
2019-02-07T04:02:28.337Z,-1.1
2019-02-07T04:07:27.496Z,-1.1
2019-02-07T04:12:28.258Z,-1.1
2019-02-07T04:17:27.783Z,-1.3
2019-02-07T04:22:27.814Z,-1.3
2019-02-07T04:27:27.398Z,-1.4
2019-02-07T04:32:27.740Z,-1.3
2019-02-07T04:37:27.781Z,-1.3
2019-02-07T04:42:27.861Z,-1.2
2019-02-07T04:47:27.971Z,-1.3
2019-02-07T04:52:28.964Z,-1.1
2019-02-07T04:57:27.850Z,-1.1
2019-02-07T05:02:28.907Z,-1.0
2019-02-07T05:07:27.935Z,-0.9
2019-02-07T05:12:28.219Z,-0.9
2019-02-07T05:17:27.997Z,-0.8
2019-02-07T05:22:27.329Z,-0.7
2019-02-07T05:27:28.403Z,-0.8
2019-02-07T05:32:27.992Z,-0.7
2019-02-07T05:37:27.578Z,-0.8
2019-02-07T05:42:28.048Z,-0.9
2019-02-07T05:47:28.145Z,-0.9
2019-02-07T05:52:28.295Z,-0.8
2019-02-07T05:57:27.554Z,-0.7
2019-02-07T06:02:27.452Z,-0.6
2019-02-07T06:07:28.289Z,-0.5
2019-02-07T06:12:27.772Z,-0.6
2019-02-07T06:17:28.428Z,-0.5
2019-02-07T06:22:28.344Z,-0.6
2019-02-07T06:27:27.846Z,-0.5
2019-02-07T06:32:29.140Z,-0.4
2019-02-07T06:37:29.290Z,-0.4
2019-02-07T06:42:28.485Z,-0.5
2019-02-07T06:47:27.967Z,-0.5
2019-02-07T06:52:27.731Z,-0.5
2019-02-07T06:57:28.646Z,-0.6
2019-02-07T07:02:28.269Z,-0.5
2019-02-07T07:07:28.360Z,-0.3
2019-02-07T07:12:28.232Z,-0.4
2019-02-07T07:17:29.182Z,-0.3
2019-02-07T07:22:27.977Z,0.1
2019-02-07T07:27:28.705Z,0.0
2019-02-07T07:32:28.653Z,0.2
2019-02-07T07:37:27.840Z,0.3
2019-02-07T07:42:28.515Z,0.3
2019-02-07T07:47:35.642Z,0.4
2019-02-07T07:52:28.161Z,0.6
2019-02-07T07:57:28.634Z,0.9
2019-02-07T08:02:28.827Z,1.0
2019-02-07T08:07:27.773Z,1.3
2019-02-07T08:12:28.046Z,1.3
2019-02-07T08:17:28.964Z,1.3
2019-02-07T08:22:29.014Z,1.4
2019-02-07T08:27:28.367Z,1.7
2019-02-07T08:32:28.707Z,1.6
2019-02-07T08:37:28.156Z,1.8
2019-02-07T08:42:28.516Z,2.0
2019-02-07T08:47:27.817Z,2.1
2019-02-07T08:52:28.324Z,2.1
2019-02-07T08:57:28.818Z,2.5
2019-02-07T09:02:28.567Z,2.4
2019-02-07T09:07:28.476Z,2.7
2019-02-07T09:12:29.139Z,3.1
2019-02-07T09:17:29.217Z,3.3
2019-02-07T09:22:28.321Z,3.3
2019-02-07T09:27:29.926Z,3.5
2019-02-07T09:32:28.503Z,3.9
2019-02-07T09:37:28.436Z,3.8
2019-02-07T09:42:28.873Z,4.1
2019-02-07T09:47:28.797Z,4.6
2019-02-07T09:52:28.674Z,4.5
2019-02-07T09:57:29.103Z,4.9
2019-02-07T10:02:33.076Z,5.2
2019-02-07T10:07:28.882Z,5.5
2019-02-07T10:12:28.881Z,5.5
2019-02-07T10:17:29.034Z,5.5
2019-02-07T10:22:27.706Z,5.6
2019-02-07T10:27:28.800Z,5.7
2019-02-07T10:32:27.798Z,6.0
2019-02-07T10:37:28.590Z,6.2
2019-02-07T10:42:28.878Z,6.5
2019-02-07T10:47:30.269Z,6.8
2019-02-07T10:52:28.851Z,7.1
2019-02-07T10:57:29.381Z,7.3
2019-02-07T11:02:28.143Z,7.3
2019-02-07T11:07:28.725Z,7.5
2019-02-07T11:12:28.788Z,7.7
2019-02-07T11:17:29.102Z,7.9
2019-02-07T11:22:28.529Z,7.9
2019-02-07T11:27:27.692Z,8.0
2019-02-07T11:32:29.013Z,8.1
2019-02-07T11:37:28.198Z,8.3
2019-02-07T11:42:28.150Z,8.6
2019-02-07T11:47:28.235Z,8.6
2019-02-07T11:52:27.924Z,8.9
2019-02-07T11:57:28.891Z,9.1
2019-02-07T12:02:28.154Z,9.2
2019-02-07T12:07:28.868Z,9.4
2019-02-07T12:12:28.517Z,9.8
2019-02-07T12:17:28.501Z,9.9
2019-02-07T12:22:28.537Z,10.4
2019-02-07T12:27:28.281Z,10.7
2019-02-07T12:32:28.861Z,10.8
2019-02-07T12:37:28.274Z,10.6
2019-02-07T12:42:28.863Z,10.4
2019-02-07T12:47:27.796Z,10.3
2019-02-07T12:52:28.330Z,10.7
2019-02-07T12:57:29.135Z,11.1
2019-02-07T13:02:28.249Z,11.3
2019-02-07T13:07:28.882Z,11.3
2019-02-07T13:12:28.264Z,11.3
2019-02-07T13:17:29.264Z,11.3
2019-02-07T13:22:28.511Z,11.5
2019-02-07T13:27:27.724Z,11.6
2019-02-07T13:32:28.375Z,11.8
2019-02-07T13:37:28.625Z,12.0
2019-02-07T13:42:28.628Z,12.4
2019-02-07T13:47:29.170Z,12.5
2019-02-07T13:52:28.193Z,12.7
2019-02-07T13:57:28.419Z,12.6
2019-02-07T14:02:29.618Z,12.2
2019-02-07T14:07:28.690Z,11.7
2019-02-07T14:12:28.834Z,11.7
2019-02-07T14:17:28.647Z,11.8
2019-02-07T14:22:28.747Z,11.8
2019-02-07T14:27:29.821Z,11.5
2019-02-07T14:32:28.428Z,11.2
2019-02-07T14:37:28.215Z,11.2
2019-02-07T14:42:28.231Z,10.9
2019-02-07T14:47:28.261Z,10.4
2019-02-07T14:52:28.680Z,10.4
2019-02-07T14:57:28.438Z,10.1
2019-02-07T15:02:28.817Z,9.8
2019-02-07T15:07:29.180Z,9.5
2019-02-07T15:12:28.699Z,9.3
2019-02-07T15:17:28.894Z,9.2
2019-02-07T15:22:28.054Z,9.1
2019-02-07T15:27:28.812Z,9.1
2019-02-07T15:32:29.020Z,9.1
2019-02-07T15:37:28.274Z,8.8
2019-02-07T15:42:28.334Z,8.8
2019-02-07T15:47:28.692Z,8.7
2019-02-07T15:52:28.167Z,8.7
2019-02-07T15:57:28.539Z,8.6
2019-02-07T16:02:28.370Z,8.5
2019-02-07T16:07:28.270Z,8.5
2019-02-07T16:12:28.606Z,8.6
2019-02-07T16:17:28.638Z,8.6
2019-02-07T16:22:29.067Z,8.4
2019-02-07T16:27:29.028Z,8.4
2019-02-07T16:32:28.990Z,8.3
2019-02-07T16:37:28.603Z,8.2
2019-02-07T16:42:27.852Z,8.1
2019-02-07T16:47:28.876Z,7.9
2019-02-07T16:52:28.876Z,7.8
2019-02-07T16:57:27.906Z,7.8
2019-02-07T17:02:40.912Z,7.7
2019-02-07T17:07:28.514Z,7.6
2019-02-07T17:12:28.283Z,7.6
2019-02-07T17:17:28.410Z,7.3
2019-02-07T17:22:27.747Z,7.3
2019-02-07T17:27:27.949Z,7.1
2019-02-07T17:32:29.274Z,6.9
2019-02-07T17:37:28.227Z,6.8
2019-02-07T17:42:27.540Z,6.8
2019-02-07T17:47:28.416Z,6.7
2019-02-07T17:52:29.275Z,6.6
2019-02-07T17:57:28.519Z,6.6
2019-02-07T18:02:27.671Z,6.5
2019-02-07T18:07:29.681Z,6.4
2019-02-07T18:12:27.658Z,6.3
2019-02-07T18:17:28.271Z,6.2
2019-02-07T18:22:28.125Z,6.1
2019-02-07T18:27:28.644Z,5.9
2019-02-07T18:32:28.449Z,5.7
2019-02-07T18:37:28.518Z,5.5
2019-02-07T18:42:27.901Z,5.3
2019-02-07T18:47:28.145Z,5.2
2019-02-07T18:52:27.686Z,5.0
2019-02-07T18:57:29.302Z,4.9
2019-02-07T19:02:28.421Z,4.9
2019-02-07T19:07:28.966Z,4.8
2019-02-07T19:12:28.489Z,4.7
2019-02-07T19:17:28.594Z,4.7
2019-02-07T19:22:28.254Z,4.7
2019-02-07T19:27:28.102Z,4.6
2019-02-07T19:32:28.195Z,4.5
2019-02-07T19:37:28.777Z,4.5
2019-02-07T19:42:28.515Z,4.5
2019-02-07T19:47:28.553Z,4.4
2019-02-07T19:52:27.964Z,4.3
2019-02-07T19:57:28.303Z,4.3
2019-02-07T20:02:27.383Z,4.2
2019-02-07T20:07:28.114Z,4.2
2019-02-07T20:12:27.953Z,4.2
2019-02-07T20:17:28.103Z,4.1
2019-02-07T20:22:27.787Z,4.1
2019-02-07T20:27:28.452Z,3.9
2019-02-07T20:32:29.532Z,3.8
2019-02-07T20:37:27.936Z,3.8
2019-02-07T20:42:27.199Z,3.7
2019-02-07T20:47:28.806Z,3.7
2019-02-07T20:52:28.691Z,3.7
2019-02-07T20:57:27.595Z,3.7
2019-02-07T21:02:28.148Z,3.6
2019-02-07T21:07:27.687Z,3.7
2019-02-07T21:12:28.534Z,3.6
2019-02-07T21:17:28.621Z,3.6
2019-02-07T21:22:34.421Z,3.5
2019-02-07T21:27:28.759Z,3.5
2019-02-07T21:32:27.827Z,3.4
2019-02-07T21:37:28.350Z,3.3
2019-02-07T21:42:28.175Z,3.3
2019-02-07T21:47:28.281Z,3.4
2019-02-07T21:52:28.214Z,3.5
2019-02-07T21:57:27.949Z,3.5
2019-02-07T22:02:28.468Z,3.5
2019-02-07T22:07:28.022Z,3.5
2019-02-07T22:12:27.631Z,3.4
2019-02-07T22:17:27.936Z,3.5
2019-02-07T22:22:27.562Z,3.5
2019-02-07T22:27:27.528Z,3.5
2019-02-07T22:32:27.942Z,3.5
2019-02-07T22:37:28.224Z,3.4
2019-02-07T22:42:28.119Z,3.4
2019-02-07T22:47:27.704Z,3.3
2019-02-07T22:52:27.572Z,3.3
2019-02-07T22:57:27.548Z,3.3
2019-02-07T23:02:27.911Z,3.3
2019-02-07T23:07:28.756Z,3.4
2019-02-07T23:12:28.332Z,3.4
2019-02-07T23:22:40.516Z,3.3
2019-02-07T23:27:39.497Z,3.3
2019-02-07T23:32:39.533Z,3.4
2019-02-07T23:37:39.675Z,3.4
2019-02-07T23:42:38.993Z,3.5
2019-02-07T23:47:39.013Z,3.6
2019-02-07T23:52:40.065Z,3.7
2019-02-07T23:57:38.565Z,3.7
